createdAt,value
2018-07-13T00:01:48.133Z,6.47
2018-07-13T00:04:22.035Z,8.37
2018-07-13T00:06:52.417Z,7.00
2018-07-13T00:09:23.177Z,6.50
2018-07-13T00:11:53.607Z,7.20
2018-07-13T00:14:25.241Z,7.40
2018-07-13T00:16:56.915Z,7.27
2018-07-13T00:19:27.638Z,6.07
2018-07-13T00:21:57.558Z,6.23
2018-07-13T00:24:28.021Z,6.30
2018-07-13T00:27:00.251Z,6.90
2018-07-13T00:29:30.674Z,7.60
2018-07-13T00:32:01.319Z,7.57
2018-07-13T00:34:31.791Z,8.40
2018-07-13T00:37:02.315Z,6.67
2018-07-13T00:39:32.608Z,7.80
2018-07-13T00:42:03.847Z,7.00
2018-07-13T00:44:34.616Z,6.70
2018-07-13T00:47:05.314Z,7.13
2018-07-13T00:49:35.920Z,6.67
2018-07-13T00:52:06.664Z,7.00
2018-07-13T00:54:37.789Z,7.77
2018-07-13T00:57:08.400Z,7.20
2018-07-13T00:59:38.767Z,8.43
2018-07-13T01:02:09.373Z,7.20
2018-07-13T01:04:39.780Z,6.80
2018-07-13T01:07:10.527Z,8.37
2018-07-13T01:09:40.925Z,6.93
2018-07-13T01:12:11.631Z,7.13
2018-07-13T01:14:42.172Z,6.57
2018-07-13T01:17:12.498Z,6.63
2018-07-13T01:19:43.311Z,9.37
2018-07-13T01:22:13.715Z,7.23
2018-07-13T01:24:44.220Z,8.07
2018-07-13T01:27:14.714Z,7.27
2018-07-13T01:29:44.900Z,7.07
2018-07-13T01:32:15.407Z,8.87
2018-07-13T01:34:45.871Z,6.83
2018-07-13T01:37:16.323Z,8.37
2018-07-13T01:40:09.029Z,7.87
2018-07-13T01:42:39.579Z,8.43
2018-07-13T01:45:09.970Z,7.43
2018-07-13T01:47:40.522Z,9.03
2018-07-13T01:50:11.275Z,7.53
2018-07-13T01:52:41.763Z,9.17
2018-07-13T01:55:12.554Z,8.37
2018-07-13T01:57:43.079Z,7.23
2018-07-13T02:00:13.762Z,6.77
2018-07-13T02:02:44.491Z,6.80
2018-07-13T02:05:14.907Z,7.43
2018-07-13T02:07:45.304Z,8.57
2018-07-13T02:10:16.003Z,7.57
2018-07-13T02:12:46.390Z,6.50
2018-07-13T02:15:16.927Z,9.47
2018-07-13T02:17:47.314Z,9.03
2018-07-13T02:20:17.718Z,7.00
2018-07-13T02:22:48.322Z,8.97
2018-07-13T02:25:18.635Z,7.77
2018-07-13T02:27:49.055Z,8.23
2018-07-13T02:30:19.489Z,6.73
2018-07-13T02:32:49.798Z,8.23
2018-07-13T02:35:20.261Z,7.83
2018-07-13T02:37:50.636Z,7.30
2018-07-13T02:40:21.057Z,8.00
2018-07-13T02:42:51.608Z,6.30
2018-07-13T02:45:22.101Z,7.13
2018-07-13T02:47:52.891Z,7.20
2018-07-13T02:50:23.425Z,8.57
2018-07-13T02:52:54.228Z,7.20
2018-07-13T02:55:24.563Z,7.47
2018-07-13T02:57:54.470Z,7.73
2018-07-13T03:00:24.895Z,6.90
2018-07-13T03:02:55.407Z,7.53
2018-07-13T03:05:25.852Z,8.47
2018-07-13T03:07:56.405Z,7.03
2018-07-13T03:10:26.838Z,9.40
2018-07-13T03:12:57.343Z,8.07
2018-07-13T03:15:27.832Z,7.17
2018-07-13T03:17:58.416Z,8.87
2018-07-13T03:20:28.526Z,9.50
2018-07-13T03:22:59.082Z,9.63
2018-07-13T03:25:29.715Z,7.67
2018-07-13T03:28:00.398Z,7.20
2018-07-13T03:30:30.784Z,10.30
2018-07-13T03:33:01.276Z,8.77
2018-07-13T03:35:31.670Z,10.60
2018-07-13T03:38:02.121Z,10.23
2018-07-13T03:40:32.691Z,8.57
2018-07-13T03:43:03.394Z,10.10
2018-07-13T03:45:33.947Z,8.17
2018-07-13T03:48:04.516Z,9.60
2018-07-13T03:50:35.074Z,8.97
2018-07-13T03:53:05.744Z,10.00
2018-07-13T03:55:36.237Z,10.13
2018-07-13T03:58:06.293Z,10.53
2018-07-13T04:00:36.776Z,9.70
2018-07-13T04:03:07.211Z,10.47
2018-07-13T04:05:38.126Z,9.47
2018-07-13T04:08:08.461Z,9.97
2018-07-13T04:10:39.009Z,9.67
2018-07-13T04:13:09.431Z,8.07
2018-07-13T04:15:39.874Z,9.10
2018-07-13T04:18:16.591Z,8.13
2018-07-13T04:20:47.086Z,9.53
2018-07-13T04:23:17.562Z,8.23
2018-07-13T04:25:48.169Z,9.07
2018-07-13T04:28:19.635Z,8.60
2018-07-13T04:30:50.835Z,10.77
2018-07-13T04:33:21.270Z,10.60
2018-07-13T04:35:51.679Z,8.60
2018-07-13T04:38:22.293Z,10.07
2018-07-13T04:40:52.807Z,8.90
2018-07-13T04:43:23.358Z,6.73
2018-07-13T04:45:53.838Z,9.13
2018-07-13T04:48:24.529Z,9.10
2018-07-13T04:50:55.164Z,7.87
2018-07-13T04:53:25.579Z,7.43
2018-07-13T04:55:56.157Z,8.07
2018-07-13T04:58:33.150Z,8.83
2018-07-13T05:01:03.781Z,7.00
2018-07-13T05:03:34.365Z,7.40
2018-07-13T05:06:04.757Z,7.47
2018-07-13T05:08:35.178Z,7.07
2018-07-13T05:11:05.851Z,8.00
2018-07-13T05:13:36.237Z,6.77
2018-07-13T05:16:06.854Z,7.80
2018-07-13T05:19:00.545Z,7.10
2018-07-13T05:21:31.079Z,7.60
2018-07-13T05:24:01.628Z,7.43
2018-07-13T05:26:32.295Z,7.43
2018-07-13T05:29:25.121Z,9.63
2018-07-13T05:31:55.514Z,7.83
2018-07-13T05:34:26.112Z,7.63
2018-07-13T05:36:56.668Z,8.77
2018-07-13T05:39:27.060Z,7.13
2018-07-13T05:41:57.481Z,8.67
2018-07-13T05:44:27.681Z,7.63
2018-07-13T05:46:58.267Z,7.17
2018-07-13T05:49:28.570Z,7.90
2018-07-13T05:51:59.090Z,8.07
2018-07-13T05:54:29.623Z,10.73
2018-07-13T05:56:59.969Z,10.13
2018-07-13T05:59:30.413Z,7.47
2018-07-13T06:02:00.789Z,9.07
2018-07-13T06:04:31.343Z,6.47
2018-07-13T06:07:01.667Z,8.98
2018-07-13T06:09:42.165Z,7.40
2018-07-13T06:12:12.441Z,6.22
2018-07-13T06:14:43.164Z,8.08
2018-07-13T06:17:13.249Z,9.08
2018-07-13T06:19:43.545Z,6.33
2018-07-13T06:22:13.389Z,6.58
2018-07-13T06:24:43.394Z,7.20
2018-07-13T06:27:13.782Z,6.87
2018-07-13T06:29:44.283Z,9.33
2018-07-13T06:32:14.625Z,8.83
2018-07-13T06:34:45.249Z,7.45
2018-07-13T06:37:15.716Z,6.03
2018-07-13T06:39:46.750Z,6.28
2018-07-13T06:42:17.762Z,7.58
2018-07-13T06:44:48.719Z,8.05
2018-07-13T06:47:19.823Z,6.53
2018-07-13T06:49:50.447Z,8.10
2018-07-13T06:52:21.089Z,9.13
2018-07-13T06:54:52.012Z,6.67
2018-07-13T06:57:39.062Z,8.28
2018-07-13T07:01:21.860Z,6.03
2018-07-13T07:04:26.339Z,7.62
2018-07-13T07:06:57.513Z,8.43
2018-07-13T07:09:29.063Z,6.70
2018-07-13T07:12:53.061Z,6.75
2018-07-13T07:15:24.519Z,7.40
2018-07-13T07:17:55.603Z,8.10
2018-07-13T07:20:26.127Z,6.62
2018-07-13T07:22:56.554Z,8.43
2018-07-13T07:25:27.081Z,6.92
2018-07-13T07:27:57.583Z,8.75
2018-07-13T07:30:28.015Z,6.83
2018-07-13T07:32:58.586Z,7.92
2018-07-13T07:35:29.059Z,8.43
2018-07-13T07:38:10.199Z,7.58
2018-07-13T07:40:41.134Z,7.87
2018-07-13T07:43:11.668Z,6.05
2018-07-13T07:45:42.241Z,7.10
2018-07-13T07:48:13.016Z,7.62
2018-07-13T07:50:43.107Z,8.15
2018-07-13T07:53:13.692Z,8.55
2018-07-13T07:55:44.282Z,7.42
2018-07-13T07:58:15.760Z,7.15
2018-07-13T08:00:46.273Z,6.85
2018-07-13T08:03:17.149Z,10.82
2018-07-13T08:05:47.828Z,7.17
2018-07-13T08:08:18.644Z,7.00
2018-07-13T08:10:49.749Z,8.93
2018-07-13T08:13:20.432Z,7.47
2018-07-13T08:15:51.416Z,6.75
2018-07-13T08:18:21.737Z,7.30
2018-07-13T08:20:52.391Z,6.50
2018-07-13T08:23:23.528Z,8.88
2018-07-13T08:25:54.515Z,7.00
2018-07-13T08:28:25.940Z,7.78
2018-07-13T08:30:59.904Z,6.10
2018-07-13T08:33:30.597Z,6.17
2018-07-13T08:36:01.417Z,7.97
2018-07-13T08:38:31.919Z,6.12
2018-07-13T08:41:02.632Z,6.05
2018-07-13T08:43:33.797Z,5.45
2018-07-13T08:46:04.971Z,6.42
2018-07-13T08:48:35.823Z,10.78
2018-07-13T08:51:06.921Z,8.08
2018-07-13T08:53:38.107Z,9.18
2018-07-13T08:56:09.026Z,9.10
2018-07-13T08:58:40.089Z,4.90
2018-07-13T09:01:11.085Z,6.15
2018-07-13T09:03:41.719Z,9.65
2018-07-13T09:06:13.468Z,6.00
2018-07-13T09:08:44.483Z,7.45
2018-07-13T09:11:15.489Z,6.50
2018-07-13T09:13:46.495Z,7.75
2018-07-13T09:16:17.532Z,8.28
2018-07-13T09:18:47.654Z,6.95
2018-07-13T09:21:18.184Z,6.55
2018-07-13T09:23:49.091Z,5.83
2018-07-13T09:26:19.791Z,6.20
2018-07-13T09:28:51.199Z,8.45
2018-07-13T09:31:21.978Z,5.62
2018-07-13T09:33:52.823Z,6.10
2018-07-13T09:36:24.124Z,7.75
2018-07-13T09:38:54.783Z,6.47
2018-07-13T09:41:25.328Z,9.33
2018-07-13T09:43:56.263Z,5.25
2018-07-13T09:46:27.352Z,4.30
2018-07-13T09:48:58.686Z,5.40
2018-07-13T09:51:29.713Z,4.45
2018-07-13T09:54:00.901Z,4.80
2018-07-13T09:56:31.334Z,5.15
2018-07-13T09:59:02.350Z,4.35
2018-07-13T10:01:33.335Z,6.12
2018-07-13T10:04:04.035Z,5.95
2018-07-13T10:06:35.056Z,5.22
2018-07-13T10:09:07.858Z,6.40
2018-07-13T10:11:38.415Z,6.40
2018-07-13T10:14:09.129Z,5.55
2018-07-13T10:16:40.293Z,5.08
2018-07-13T10:19:11.051Z,4.60
2018-07-13T10:21:44.844Z,5.87
2018-07-13T10:24:18.131Z,5.12
2018-07-13T10:26:49.120Z,5.95
2018-07-13T10:32:24.046Z,5.90
2018-07-13T10:34:55.910Z,6.03
2018-07-13T10:37:30.574Z,4.22
2018-07-13T10:40:01.568Z,4.28
2018-07-13T10:42:32.230Z,4.45
2018-07-13T10:45:03.208Z,4.45
2018-07-13T10:47:34.648Z,4.03
2018-07-13T10:50:05.686Z,4.42
2018-07-13T10:52:36.629Z,5.00
2018-07-13T10:55:07.610Z,4.87
2018-07-13T10:57:38.644Z,6.40
2018-07-13T11:00:09.652Z,5.65
2018-07-13T11:02:40.306Z,5.08
2018-07-13T11:05:11.254Z,5.83
2018-07-13T11:07:42.065Z,6.10
2018-07-13T11:10:13.071Z,5.30
2018-07-13T11:12:44.002Z,4.20
2018-07-13T11:15:14.731Z,4.25
2018-07-13T11:17:45.790Z,4.67
2018-07-13T11:23:23.883Z,4.85
2018-07-13T11:25:54.833Z,3.72
2018-07-13T11:28:25.444Z,4.70
2018-07-13T11:30:56.457Z,3.50
2018-07-13T11:33:27.478Z,4.85
2018-07-13T11:35:58.392Z,3.60
2018-07-13T11:38:29.155Z,3.87
2018-07-13T11:41:00.219Z,3.67
2018-07-13T11:43:31.371Z,4.37
2018-07-13T11:46:02.212Z,5.30
2018-07-13T11:48:33.247Z,3.33
2018-07-13T11:51:04.281Z,3.98
2018-07-13T11:53:34.971Z,3.20
2018-07-13T11:56:12.298Z,3.67
2018-07-13T11:58:43.227Z,3.10
2018-07-13T12:01:14.316Z,3.00
2018-07-13T12:03:45.016Z,4.62
2018-07-13T12:06:22.339Z,2.80
2018-07-13T12:08:52.974Z,3.50
2018-07-13T12:11:23.827Z,3.72
2018-07-13T12:13:54.481Z,3.25
2018-07-13T12:16:25.385Z,3.83
2018-07-13T12:18:56.377Z,3.30
2018-07-13T12:21:27.403Z,3.45
2018-07-13T12:23:58.356Z,4.00
2018-07-13T12:26:31.394Z,2.90
2018-07-13T12:29:02.459Z,2.42
2018-07-13T12:31:37.703Z,3.25
2018-07-13T12:34:08.745Z,2.37
2018-07-13T12:36:39.254Z,3.47
2018-07-13T12:39:09.185Z,2.15
2018-07-13T12:41:40.103Z,1.98
2018-07-13T12:44:12.723Z,3.02
2018-07-13T12:46:43.166Z,2.55
2018-07-13T12:49:14.316Z,2.65
2018-07-13T12:51:45.052Z,4.42
2018-07-13T12:54:15.694Z,3.20
2018-07-13T12:56:46.643Z,2.83
2018-07-13T12:59:17.157Z,5.12
2018-07-13T13:01:47.924Z,2.37
2018-07-13T13:04:19.241Z,2.85
2018-07-13T13:06:53.259Z,3.17
2018-07-13T13:09:23.956Z,1.98
2018-07-13T13:11:54.918Z,3.90
2018-07-13T13:14:25.968Z,3.50
2018-07-13T13:16:57.150Z,2.70
2018-07-13T13:19:27.865Z,2.42
2018-07-13T13:21:58.506Z,3.02
2018-07-13T13:24:29.328Z,3.25
2018-07-13T13:26:59.960Z,3.47
2018-07-13T13:29:30.947Z,2.90
2018-07-13T13:32:02.344Z,3.15
2018-07-13T13:34:33.357Z,2.35
2018-07-13T13:37:04.043Z,3.42
2018-07-13T13:39:35.068Z,3.42
2018-07-13T13:42:06.895Z,2.50
2018-07-13T13:44:38.515Z,3.17
2018-07-13T13:47:11.584Z,3.35
2018-07-13T13:49:43.452Z,7.92
2018-07-13T13:52:14.322Z,4.25
2018-07-13T13:54:45.487Z,3.87
2018-07-13T13:57:16.341Z,4.42
2018-07-13T13:59:50.040Z,3.45
2018-07-13T14:02:21.404Z,3.67
2018-07-13T14:04:52.270Z,2.65
2018-07-13T14:07:23.483Z,3.42
2018-07-13T14:09:54.207Z,2.85
2018-07-13T14:12:25.606Z,2.92
2018-07-13T14:14:56.437Z,3.95
2018-07-13T14:17:28.635Z,2.92
2018-07-13T14:19:59.985Z,2.50
2018-07-13T14:22:30.981Z,8.15
2018-07-13T14:25:02.006Z,2.42
2018-07-13T14:27:32.657Z,3.00
2018-07-13T14:30:03.206Z,3.62
2018-07-13T14:32:33.713Z,4.08
2018-07-13T14:35:04.378Z,2.40
2018-07-13T14:37:34.980Z,2.87
2018-07-13T14:40:06.826Z,3.95
2018-07-13T14:42:38.716Z,4.08
2018-07-13T14:45:10.246Z,2.47
2018-07-13T14:47:42.283Z,4.03
2018-07-13T14:50:13.788Z,3.50
2018-07-13T14:52:45.182Z,2.67
2018-07-13T14:55:15.681Z,3.33
2018-07-13T14:57:47.599Z,2.90
2018-07-13T15:00:19.762Z,3.08
2018-07-13T15:02:50.847Z,2.65
2018-07-13T15:05:26.831Z,3.17
2018-07-13T15:07:57.469Z,3.35
2018-07-13T15:10:28.510Z,4.47
2018-07-13T15:13:00.232Z,2.45
2018-07-13T15:15:31.297Z,10.45
2018-07-13T15:18:01.913Z,3.17
2018-07-13T15:20:32.931Z,2.42
2018-07-13T15:23:03.908Z,2.47
2018-07-13T15:25:34.460Z,2.12
2018-07-13T15:28:04.932Z,3.55
2018-07-13T15:30:37.968Z,3.67
2018-07-13T15:33:08.620Z,3.27
2018-07-13T15:35:39.509Z,2.12
2018-07-13T15:38:10.033Z,2.62
2018-07-13T15:40:41.357Z,3.00
2018-07-13T15:43:12.424Z,2.22
2018-07-13T15:45:43.367Z,2.33
2018-07-13T15:48:14.070Z,2.08
2018-07-13T15:50:45.396Z,3.02
2018-07-13T15:53:16.121Z,2.20
2018-07-13T15:55:51.523Z,2.47
2018-07-13T15:58:22.440Z,3.92
2018-07-13T16:00:53.614Z,4.10
2018-07-13T16:03:24.508Z,2.87
2018-07-13T16:05:55.475Z,2.20
2018-07-13T16:08:26.111Z,2.80
2018-07-13T16:10:57.503Z,2.10
2018-07-13T16:13:28.187Z,2.67
2018-07-13T16:15:59.175Z,2.85
2018-07-13T16:18:29.784Z,3.80
2018-07-13T16:21:00.733Z,2.08
2018-07-13T16:23:31.768Z,3.45
2018-07-13T16:26:02.755Z,2.75
2018-07-13T16:28:33.571Z,2.37
2018-07-13T16:31:04.618Z,4.67
2018-07-13T16:33:35.260Z,3.12
2018-07-13T16:36:06.231Z,2.65
2018-07-13T16:38:36.854Z,4.45
2018-07-13T16:41:07.791Z,3.52
2018-07-13T16:43:38.338Z,4.67
2018-07-13T16:46:09.219Z,3.52
2018-07-13T16:48:40.163Z,2.77
2018-07-13T16:51:11.259Z,2.87
2018-07-13T16:53:42.273Z,2.30
2018-07-13T16:56:13.266Z,3.52
2018-07-13T16:58:43.993Z,3.33
2018-07-13T17:01:15.248Z,3.60
2018-07-13T17:03:46.023Z,2.72
2018-07-13T17:06:17.253Z,3.30
2018-07-13T17:08:48.085Z,3.85
2018-07-13T17:11:19.306Z,4.10
2018-07-13T17:13:50.308Z,3.45
2018-07-13T17:16:21.137Z,3.27
2018-07-13T17:18:52.112Z,3.50
2018-07-13T17:21:23.100Z,4.22
2018-07-13T17:23:54.152Z,3.42
2018-07-13T17:26:25.447Z,3.58
2018-07-13T17:28:56.211Z,4.28
2018-07-13T17:31:27.216Z,3.30
2018-07-13T17:33:58.096Z,4.30
2018-07-13T17:36:28.962Z,5.00
2018-07-13T17:38:59.980Z,4.53
2018-07-13T17:41:30.729Z,5.97
2018-07-13T17:44:02.001Z,3.98
2018-07-13T17:46:33.008Z,4.28
2018-07-13T17:49:04.024Z,4.97
2018-07-13T17:51:35.193Z,5.05
2018-07-13T17:54:06.158Z,3.27
2018-07-13T17:56:36.694Z,4.37
2018-07-13T17:59:08.050Z,3.08
2018-07-13T18:01:39.006Z,4.05
2018-07-13T18:04:09.705Z,4.08
2018-07-13T18:06:40.782Z,4.10
2018-07-13T18:09:11.788Z,4.22
2018-07-13T18:11:43.115Z,3.70
2018-07-13T18:14:13.796Z,3.60
2018-07-13T18:16:44.759Z,4.10
2018-07-13T18:19:15.399Z,4.22
2018-07-13T18:21:46.640Z,3.58
2018-07-13T18:24:17.861Z,5.08
2018-07-13T18:26:49.197Z,5.17
2018-07-13T18:29:19.918Z,3.97
2018-07-13T18:31:50.871Z,5.30
2018-07-13T18:34:21.850Z,5.23
2018-07-13T18:36:52.553Z,5.20
2018-07-13T18:39:23.739Z,5.07
2018-07-13T18:41:54.521Z,6.03
2018-07-13T18:44:25.491Z,5.40
2018-07-13T18:46:56.304Z,5.97
2018-07-13T18:49:27.045Z,5.53
2018-07-13T18:51:57.572Z,5.33
2018-07-13T18:54:28.672Z,5.37
2018-07-13T18:57:00.366Z,6.03
2018-07-13T18:59:31.020Z,5.47
2018-07-13T19:02:02.026Z,6.80
2018-07-13T19:04:33.092Z,5.80
2018-07-13T19:07:04.120Z,8.43
2018-07-13T19:09:35.065Z,6.90
2018-07-13T19:12:05.900Z,6.80
2018-07-13T19:14:36.734Z,7.03
2018-07-13T19:17:07.942Z,5.47
2018-07-13T19:19:39.079Z,8.20
2018-07-13T19:22:09.395Z,7.17
2018-07-13T19:24:40.131Z,5.90
2018-07-13T19:27:10.728Z,8.70
2018-07-13T19:29:41.791Z,8.77
2018-07-13T19:32:12.678Z,9.40
2018-07-13T19:34:43.509Z,9.87
2018-07-13T19:37:14.626Z,7.43
2018-07-13T19:39:45.546Z,6.43
2018-07-13T19:42:16.583Z,5.87
2018-07-13T19:44:47.255Z,7.97
2018-07-13T19:47:18.209Z,7.63
2018-07-13T19:49:48.863Z,5.53
2018-07-13T19:52:19.928Z,8.37
2018-07-13T19:54:50.802Z,5.70
2018-07-13T19:57:21.858Z,5.57
2018-07-13T19:59:52.707Z,6.17
2018-07-13T20:02:23.670Z,7.13
2018-07-13T20:04:54.363Z,6.90
2018-07-13T20:07:25.234Z,6.63
2018-07-13T20:09:56.719Z,6.97
2018-07-13T20:12:27.709Z,6.97
2018-07-13T20:14:58.363Z,7.07
2018-07-13T20:17:30.913Z,7.73
2018-07-13T20:20:01.727Z,9.20
2018-07-13T20:22:32.768Z,7.83
2018-07-13T20:25:03.436Z,6.87
2018-07-13T20:27:34.431Z,6.53
2018-07-13T20:30:08.960Z,5.77
2018-07-13T20:32:40.008Z,8.83
2018-07-13T20:35:11.065Z,6.13
2018-07-13T20:37:41.996Z,5.80
2018-07-13T20:40:12.942Z,6.60
2018-07-13T20:42:43.891Z,7.87
2018-07-13T20:45:14.515Z,7.03
2018-07-13T20:47:45.588Z,5.23
2018-07-13T20:50:16.320Z,6.50
2018-07-13T20:52:49.490Z,7.10
2018-07-13T20:55:19.452Z,7.20
2018-07-13T20:57:50.908Z,6.40
2018-07-13T21:00:21.850Z,7.10
2018-07-13T21:02:52.676Z,5.70
2018-07-13T21:05:23.594Z,6.03
2018-07-13T21:07:54.603Z,6.57
2018-07-13T21:10:25.472Z,7.63
2018-07-13T21:12:56.152Z,8.47
2018-07-13T21:15:26.645Z,11.70
2018-07-13T21:17:57.714Z,6.07
2018-07-13T21:20:28.672Z,7.07
2018-07-13T21:23:00.140Z,6.70
2018-07-13T21:25:31.027Z,7.67
2018-07-13T21:28:02.117Z,5.27
2018-07-13T21:30:33.243Z,8.10
2018-07-13T21:33:04.286Z,6.37
2018-07-13T21:35:35.260Z,6.77
2018-07-13T21:38:06.029Z,9.53
2018-07-13T21:40:37.099Z,7.47
2018-07-13T21:43:08.193Z,6.63
2018-07-13T21:45:39.125Z,6.60
2018-07-13T21:48:13.059Z,7.77
2018-07-13T21:50:52.526Z,7.27
2018-07-13T21:53:29.749Z,6.90
2018-07-13T21:56:01.135Z,7.00
2018-07-13T21:58:43.849Z,6.53
2018-07-13T22:01:26.124Z,7.33
2018-07-13T22:03:57.211Z,15.57
2018-07-13T22:06:28.236Z,9.47
2018-07-13T22:08:59.718Z,9.73
2018-07-13T22:11:30.944Z,8.17
2018-07-13T22:14:11.824Z,7.97
2018-07-13T22:16:42.968Z,9.93
2018-07-13T22:19:14.748Z,7.30
2018-07-13T22:21:47.459Z,8.77
2018-07-13T22:24:18.977Z,9.13
2018-07-13T22:26:49.588Z,8.87
2018-07-13T22:29:25.480Z,10.63
2018-07-13T22:32:14.456Z,8.13
2018-07-13T22:35:00.376Z,10.23
2018-07-13T22:37:31.444Z,8.20
2018-07-13T22:40:04.522Z,7.47
2018-07-13T22:42:39.374Z,7.10
2018-07-13T22:45:11.603Z,7.23
2018-07-13T22:47:44.362Z,7.10
2018-07-13T22:50:18.162Z,6.00
2018-07-13T22:52:50.508Z,6.23
2018-07-13T22:55:23.537Z,6.53
2018-07-13T23:00:39.204Z,7.87
2018-07-13T23:03:14.688Z,5.90
2018-07-13T23:05:47.189Z,6.40
2018-07-13T23:08:20.808Z,6.00
2018-07-13T23:10:55.789Z,6.87
2018-07-13T23:13:37.887Z,8.40
2018-07-13T23:16:29.477Z,6.40
2018-07-13T23:19:06.014Z,6.03
2018-07-13T23:21:37.576Z,9.83
2018-07-13T23:24:09.575Z,7.90
2018-07-13T23:26:40.602Z,10.33
2018-07-13T23:29:16.911Z,9.53
2018-07-13T23:31:48.628Z,6.60
2018-07-13T23:34:19.864Z,7.30
2018-07-13T23:36:50.847Z,7.07
2018-07-13T23:39:22.116Z,6.60
2018-07-13T23:41:57.682Z,6.20
2018-07-13T23:44:28.848Z,6.00
2018-07-13T23:47:03.682Z,5.90
2018-07-13T23:49:35.219Z,8.83
2018-07-13T23:52:10.899Z,7.40
2018-07-13T23:54:42.247Z,9.73
2018-07-13T23:57:13.362Z,8.70
2018-07-13T23:59:44.404Z,7.37
